createdAt,value
2022-08-04T00:01:47.242Z,4.68
2022-08-04T00:04:21.252Z,4.57
2022-08-04T00:06:56.623Z,4.70
2022-08-04T00:14:28.848Z,4.30
2022-08-04T00:16:56.282Z,3.85
2022-08-04T00:19:30.367Z,4.22
2022-08-04T00:22:02.770Z,4.18
2022-08-04T00:24:31.301Z,4.28
2022-08-04T00:26:58.500Z,5.00
2022-08-04T00:29:27.630Z,4.60
2022-08-04T00:31:57.856Z,4.38
2022-08-04T00:34:27.605Z,3.95
2022-08-04T00:36:55.836Z,4.55
2022-08-04T00:39:23.855Z,4.35
2022-08-04T00:42:16.699Z,4.50
2022-08-04T00:45:03.360Z,4.47
2022-08-04T00:47:44.553Z,4.28
2022-08-04T00:50:18.665Z,5.05
2022-08-04T00:55:48.280Z,4.63
2022-08-04T00:58:29.291Z,5.45
2022-08-04T01:01:02.433Z,4.68
2022-08-04T01:03:47.738Z,5.07
2022-08-04T01:06:24.661Z,4.70
2022-08-04T01:09:07.148Z,4.80
2022-08-04T01:11:57.579Z,5.03
2022-08-04T01:14:57.973Z,4.95
2022-08-04T01:17:37.641Z,4.95
2022-08-04T01:20:07.736Z,4.97
2022-08-04T01:23:08.571Z,5.20
2022-08-04T01:25:58.695Z,5.50
2022-08-04T01:28:38.905Z,6.15
2022-08-04T01:31:21.917Z,6.22
2022-08-04T01:34:04.166Z,6.60
2022-08-04T01:36:35.701Z,6.80
2022-08-04T01:42:09.727Z,7.40
2022-08-04T01:44:38.596Z,7.20
2022-08-04T01:47:09.170Z,6.65
2022-08-04T01:49:40.639Z,6.00
2022-08-04T01:52:10.228Z,5.68
2022-08-04T01:54:41.207Z,6.10
2022-08-04T01:57:38.879Z,5.68
2022-08-04T01:59:59.679Z,5.60
2022-08-04T02:04:56.124Z,6.20
2022-08-04T02:07:39.476Z,6.38
2022-08-04T02:10:08.506Z,5.93
2022-08-04T02:20:21.197Z,6.20
2022-08-04T02:22:57.957Z,6.30
2022-08-04T02:25:26.870Z,5.65
2022-08-04T02:28:12.902Z,5.80
2022-08-04T02:30:47.161Z,6.18
2022-08-04T02:33:19.909Z,5.20
2022-08-04T02:35:54.247Z,5.85
2022-08-04T02:38:27.649Z,5.53
2022-08-04T02:41:00.296Z,5.22
2022-08-04T02:43:51.496Z,5.45
2022-08-04T02:46:19.401Z,5.45
2022-08-04T02:48:49.979Z,5.35
2022-08-04T02:51:20.201Z,5.40
2022-08-04T02:53:49.609Z,5.30
2022-08-04T02:56:20.205Z,5.18
2022-08-04T02:58:51.777Z,5.65
2022-08-04T03:01:18.980Z,5.47
2022-08-04T03:07:50.155Z,5.20
2022-08-04T03:10:57.070Z,5.50
2022-08-04T03:14:09.637Z,6.40
2022-08-04T03:17:13.736Z,6.25
2022-08-04T03:20:07.504Z,6.35
2022-08-04T03:26:23.104Z,6.68
2022-08-04T03:29:36.118Z,6.22
2022-08-04T03:32:30.761Z,6.25
2022-08-04T03:35:14.676Z,5.57
2022-08-04T03:38:23.583Z,6.90
2022-08-04T03:41:16.725Z,6.27
2022-08-04T03:44:42.055Z,6.57
2022-08-04T03:47:29.633Z,6.15
2022-08-04T03:50:41.298Z,6.07
2022-08-04T03:53:40.396Z,5.50
2022-08-04T03:56:47.053Z,6.40
2022-08-04T03:59:42.080Z,6.10
2022-08-04T04:10:30.440Z,6.22
2022-08-04T04:13:19.637Z,5.88
2022-08-04T04:16:13.507Z,6.60
2022-08-04T04:19:05.410Z,5.40
2022-08-04T04:21:58.429Z,5.75
2022-08-04T04:30:00.874Z,5.80
2022-08-04T04:32:54.138Z,5.93
2022-08-04T04:35:35.527Z,5.50
2022-08-04T04:38:35.213Z,5.38
2022-08-04T04:41:24.909Z,4.57
2022-08-04T04:44:28.727Z,5.57
2022-08-04T04:47:07.320Z,5.47
2022-08-04T04:49:40.761Z,5.55
2022-08-04T04:52:13.689Z,5.45
2022-08-04T04:54:50.066Z,5.00
2022-08-04T04:57:20.216Z,5.32
2022-08-04T05:00:10.204Z,4.80
2022-08-04T05:03:00.138Z,4.97
2022-08-04T05:05:39.316Z,4.78
2022-08-04T05:08:44.947Z,4.07
2022-08-04T05:11:33.938Z,3.83
2022-08-04T05:14:35.131Z,4.03
2022-08-04T05:16:58.432Z,3.90
2022-08-04T05:19:34.077Z,3.90
2022-08-04T05:22:07.647Z,4.10
2022-08-04T05:24:40.996Z,4.63
2022-08-04T05:27:14.369Z,3.83
2022-08-04T05:29:50.133Z,3.92
2022-08-04T05:32:20.107Z,4.25
2022-08-04T05:34:58.109Z,4.67
2022-08-04T05:37:28.388Z,4.50
2022-08-04T05:40:00.824Z,4.30
2022-08-04T05:42:29.124Z,4.97
2022-08-04T05:44:57.165Z,4.80
2022-08-04T05:47:25.080Z,4.85
2022-08-04T05:50:01.682Z,4.88
2022-08-04T05:52:31.738Z,5.57
2022-08-04T05:55:00.570Z,5.22
2022-08-04T05:57:28.408Z,5.00
2022-08-04T05:59:57.523Z,5.05
2022-08-04T06:02:26.492Z,4.65
2022-08-04T06:04:56.380Z,4.70
2022-08-04T06:07:23.698Z,5.22
2022-08-04T06:09:50.949Z,5.60
2022-08-04T06:12:20.990Z,5.40
2022-08-04T06:14:53.013Z,5.53
2022-08-04T06:18:33.550Z,5.95
2022-08-04T06:20:19.504Z,5.78
2022-08-04T06:22:53.913Z,6.28
2022-08-04T06:25:25.557Z,6.95
2022-08-04T06:27:54.859Z,7.32
2022-08-04T06:30:26.352Z,7.18
2022-08-04T06:33:03.550Z,7.65
2022-08-04T06:35:34.422Z,7.80
2022-08-04T06:38:03.006Z,8.25
2022-08-04T06:40:33.620Z,8.50
2022-08-04T06:43:03.118Z,8.75
2022-08-04T06:45:31.142Z,8.27
2022-08-04T06:47:59.997Z,7.88
2022-08-04T06:51:26.465Z,6.72
2022-08-04T06:53:17.176Z,7.47
2022-08-04T06:55:48.029Z,7.60
2022-08-04T06:58:16.586Z,7.20
2022-08-04T07:00:45.728Z,6.90
2022-08-04T07:03:14.803Z,6.90
2022-08-04T07:05:42.408Z,7.18
2022-08-04T07:08:11.890Z,6.70
2022-08-04T07:10:41.194Z,7.07
2022-08-04T07:13:09.818Z,6.78
2022-08-04T07:15:39.040Z,7.55
2022-08-04T07:18:06.439Z,6.70
2022-08-04T07:20:36.313Z,5.45
2022-08-04T07:23:04.330Z,5.63
2022-08-04T07:26:00.210Z,5.80
2022-08-04T07:28:24.517Z,4.40
2022-08-04T07:30:53.590Z,4.80
2022-08-04T07:33:22.089Z,3.67
2022-08-04T07:36:09.878Z,3.55
2022-08-04T07:38:48.338Z,3.45
2022-08-04T07:41:38.495Z,3.55
2022-08-04T07:44:08.367Z,3.20
2022-08-04T07:46:36.002Z,2.47
2022-08-04T07:49:04.207Z,2.67
2022-08-04T07:51:32.168Z,2.53
2022-08-04T07:54:00.397Z,2.33
2022-08-04T07:56:28.446Z,2.50
2022-08-04T07:58:55.844Z,2.75
2022-08-04T08:01:25.090Z,2.70
2022-08-04T08:03:54.067Z,2.17
2022-08-04T08:06:31.228Z,2.40
2022-08-04T08:09:13.126Z,3.08
2022-08-04T08:12:38.831Z,2.35
2022-08-04T08:14:31.679Z,1.60
2022-08-04T08:17:02.760Z,1.83
2022-08-04T08:19:30.550Z,1.73
2022-08-04T08:22:00.599Z,1.98
2022-08-04T08:24:29.677Z,2.10
2022-08-04T08:26:57.501Z,1.70
2022-08-04T08:29:25.904Z,1.85
2022-08-04T08:31:57.794Z,1.70
2022-08-04T08:34:31.035Z,1.80
2022-08-04T08:39:36.137Z,1.40
2022-08-04T08:42:35.469Z,1.50
2022-08-04T08:45:30.302Z,1.58
2022-08-04T08:48:12.360Z,1.50
2022-08-04T08:51:06.666Z,1.58
2022-08-04T08:53:52.183Z,1.65
2022-08-04T08:56:31.843Z,1.65
2022-08-04T08:59:23.459Z,2.03
2022-08-04T09:02:16.872Z,1.95
2022-08-04T09:05:11.911Z,1.80
2022-08-04T09:07:57.473Z,1.98
2022-08-04T09:10:31.845Z,1.67
2022-08-04T09:13:05.141Z,1.80
2022-08-04T09:15:37.558Z,1.50
2022-08-04T09:18:11.459Z,1.80
2022-08-04T09:20:43.871Z,1.50
2022-08-04T09:23:24.067Z,1.73
2022-08-04T09:26:05.975Z,1.45
2022-08-04T09:28:53.946Z,1.42
2022-08-04T09:31:49.062Z,1.67
2022-08-04T09:34:26.803Z,1.70
2022-08-04T09:37:02.270Z,1.50
2022-08-04T09:39:39.493Z,1.80
2022-08-04T09:42:23.189Z,1.50
2022-08-04T09:45:05.902Z,1.65
2022-08-04T09:47:40.736Z,1.42
2022-08-04T09:50:32.449Z,1.58
2022-08-04T09:53:11.068Z,1.45
2022-08-04T09:55:57.909Z,1.38
2022-08-04T09:58:44.040Z,2.00
2022-08-04T10:01:19.903Z,2.05
2022-08-04T10:03:52.275Z,1.73
2022-08-04T10:06:38.071Z,1.70
2022-08-04T10:09:25.495Z,1.65
2022-08-04T10:12:09.347Z,1.75
2022-08-04T10:14:47.987Z,1.30
2022-08-04T10:17:58.060Z,1.42
2022-08-04T10:20:45.693Z,1.70
2022-08-04T10:23:24.245Z,1.75
2022-08-04T10:26:19.144Z,1.80
2022-08-04T10:28:58.230Z,1.63
2022-08-04T10:31:30.170Z,1.77
2022-08-04T10:34:01.801Z,1.85
2022-08-04T10:36:33.095Z,1.63
2022-08-04T10:39:06.731Z,1.33
2022-08-04T10:41:42.545Z,1.45
2022-08-04T10:44:24.614Z,1.73
2022-08-04T10:46:57.423Z,1.70
2022-08-04T10:49:44.959Z,1.77
2022-08-04T10:52:22.079Z,1.60
2022-08-04T10:54:57.773Z,1.88
2022-08-04T10:57:34.890Z,2.10
2022-08-04T11:00:10.556Z,1.70
2022-08-04T11:02:43.478Z,2.10
2022-08-04T11:05:19.563Z,2.05
2022-08-04T11:07:51.567Z,1.92
2022-08-04T11:10:25.167Z,1.90
2022-08-04T11:13:01.858Z,2.45
2022-08-04T11:15:36.459Z,2.22
2022-08-04T11:18:16.396Z,2.80
2022-08-04T11:20:52.424Z,2.58
2022-08-04T11:23:26.764Z,2.65
2022-08-04T11:26:02.256Z,2.92
2022-08-04T11:28:39.089Z,3.33
2022-08-04T11:31:12.596Z,2.47
2022-08-04T11:33:46.704Z,2.92
2022-08-04T11:36:22.584Z,2.60
2022-08-04T11:39:00.317Z,2.42
2022-08-04T11:41:40.956Z,2.00
2022-08-04T11:44:16.648Z,1.77
2022-08-04T11:46:50.573Z,2.10
2022-08-04T11:49:32.316Z,2.03
2022-08-04T11:52:21.766Z,1.88
2022-08-04T11:54:54.705Z,1.75
2022-08-04T11:57:35.246Z,2.22
2022-08-04T12:00:10.303Z,2.35
2022-08-04T12:03:17.440Z,2.38
2022-08-04T12:05:59.948Z,2.10
2022-08-04T12:08:43.856Z,1.98
2022-08-04T12:11:23.677Z,2.20
2022-08-04T12:14:00.771Z,2.10
2022-08-04T12:16:37.084Z,1.88
2022-08-04T12:19:13.741Z,1.65
2022-08-04T12:21:55.808Z,1.83
2022-08-04T12:24:28.496Z,1.70
2022-08-04T12:26:59.552Z,1.85
2022-08-04T12:29:31.257Z,2.13
2022-08-04T12:32:04.569Z,2.03
2022-08-04T12:34:38.643Z,2.30
2022-08-04T12:37:15.966Z,1.95
2022-08-04T12:40:29.188Z,2.50
2022-08-04T12:42:59.266Z,2.30
2022-08-04T12:45:28.700Z,2.40
2022-08-04T12:47:58.923Z,2.78
2022-08-04T12:50:26.826Z,2.70
2022-08-04T12:53:02.081Z,3.03
2022-08-04T12:55:33.425Z,2.72
2022-08-04T12:58:02.862Z,2.20
2022-08-04T13:00:40.542Z,2.10
2022-08-04T13:03:11.156Z,2.42
2022-08-04T13:05:41.087Z,2.33
2022-08-04T13:08:10.952Z,2.23
2022-08-04T13:10:40.847Z,2.00
2022-08-04T13:13:16.776Z,2.30
2022-08-04T13:15:56.506Z,3.30
2022-08-04T13:18:30.165Z,2.10
2022-08-04T13:21:19.502Z,2.47
2022-08-04T13:24:09.989Z,2.13
2022-08-04T13:26:54.925Z,2.17
2022-08-04T13:29:59.430Z,1.95
2022-08-04T13:32:24.448Z,2.00
2022-08-04T13:34:56.288Z,2.10
2022-08-04T13:37:30.636Z,2.15
2022-08-04T13:40:00.043Z,2.10
2022-08-04T13:42:28.409Z,1.50
2022-08-04T13:44:58.485Z,1.70
2022-08-04T13:47:29.719Z,1.55
2022-08-04T13:50:22.556Z,1.90
2022-08-04T13:52:53.045Z,1.58
2022-08-04T13:55:24.601Z,1.73
2022-08-04T13:57:58.793Z,1.65
2022-08-04T14:00:37.581Z,1.50
2022-08-04T14:03:24.000Z,1.50
2022-08-04T14:06:16.415Z,1.70
2022-08-04T14:08:55.466Z,1.30
2022-08-04T14:12:09.340Z,1.50
2022-08-04T14:14:27.035Z,1.50
2022-08-04T14:17:00.535Z,1.02
2022-08-04T14:19:35.896Z,1.40
2022-08-04T14:22:04.114Z,1.25
2022-08-04T14:24:31.452Z,1.20
2022-08-04T14:27:01.190Z,1.35
2022-08-04T14:29:37.844Z,1.70
2022-08-04T14:32:11.738Z,1.60
2022-08-04T14:34:45.238Z,1.30
2022-08-04T14:37:18.323Z,1.27
2022-08-04T14:40:18.200Z,1.50
2022-08-04T14:42:44.449Z,1.50
2022-08-04T14:45:29.600Z,1.80
2022-08-04T14:47:57.615Z,1.30
2022-08-04T14:50:35.182Z,1.55
2022-08-04T14:53:08.202Z,1.70
2022-08-04T14:55:36.481Z,1.45
2022-08-04T14:58:35.570Z,1.63
2022-08-04T15:00:56.426Z,1.20
2022-08-04T15:03:24.701Z,1.30
2022-08-04T15:06:00.357Z,1.67
2022-08-04T15:08:33.597Z,1.30
2022-08-04T15:11:03.330Z,1.30
2022-08-04T15:13:33.582Z,1.30
2022-08-04T15:16:06.350Z,1.27
2022-08-04T15:18:39.468Z,1.30
2022-08-04T15:21:08.271Z,1.52
2022-08-04T15:23:39.487Z,1.30
2022-08-04T15:26:11.473Z,1.33
2022-08-04T15:28:44.921Z,1.20
2022-08-04T15:32:07.813Z,7.80
2022-08-04T15:34:01.767Z,1.20
2022-08-04T15:36:37.875Z,1.00
2022-08-04T15:39:12.596Z,1.00
2022-08-04T15:41:55.004Z,1.02
2022-08-04T15:44:48.815Z,1.40
2022-08-04T15:47:17.084Z,1.60
2022-08-04T15:49:45.439Z,1.60
2022-08-04T15:52:15.867Z,1.48
2022-08-04T15:54:52.357Z,1.55
2022-08-04T15:58:00.894Z,1.60
2022-08-04T16:00:28.685Z,1.67
2022-08-04T16:02:55.973Z,1.55
2022-08-04T16:05:33.760Z,1.50
2022-08-04T16:08:08.385Z,1.73
2022-08-04T16:10:37.211Z,1.35
2022-08-04T16:13:08.472Z,1.77
2022-08-04T16:15:49.611Z,2.10
2022-08-04T16:18:36.688Z,1.45
2022-08-04T16:21:17.793Z,1.63
2022-08-04T16:24:02.253Z,2.42
2022-08-04T16:26:54.902Z,3.22
2022-08-04T16:32:23.433Z,1.23
2022-08-04T16:34:56.879Z,1.50
2022-08-04T16:37:30.850Z,1.60
2022-08-04T16:40:38.834Z,1.40
2022-08-04T16:43:09.053Z,1.15
2022-08-04T16:45:49.355Z,1.10
2022-08-04T16:48:17.641Z,1.25
2022-08-04T16:51:05.352Z,1.40
2022-08-04T16:53:51.554Z,1.40
2022-08-04T16:56:33.746Z,1.90
2022-08-04T16:59:14.547Z,1.45
2022-08-04T17:01:49.197Z,1.60
2022-08-04T17:04:20.004Z,1.50
2022-08-04T17:06:47.444Z,1.50
2022-08-04T17:09:16.260Z,1.73
2022-08-04T17:11:45.854Z,1.63
2022-08-04T17:14:13.817Z,1.40
2022-08-04T17:16:42.819Z,1.95
2022-08-04T17:19:24.096Z,1.92
2022-08-04T17:22:00.643Z,1.50
2022-08-04T17:24:30.377Z,2.22
2022-08-04T17:26:58.996Z,1.88
2022-08-04T17:29:43.050Z,1.30
2022-08-04T17:32:16.575Z,1.13
2022-08-04T17:34:48.541Z,1.25
2022-08-04T17:37:39.470Z,1.65
2022-08-04T17:43:03.075Z,1.52
2022-08-04T17:46:29.569Z,1.52
2022-08-04T17:49:19.812Z,1.73
2022-08-04T17:52:05.354Z,1.40
2022-08-04T17:54:40.317Z,1.40
2022-08-04T17:57:15.587Z,1.60
2022-08-04T17:59:56.667Z,1.40
2022-08-04T18:02:32.361Z,1.30
2022-08-04T18:05:06.049Z,1.20
2022-08-04T18:08:46.278Z,1.20
2022-08-04T18:10:51.978Z,1.50
2022-08-04T18:13:24.772Z,1.10
2022-08-04T18:16:02.587Z,1.27
2022-08-04T18:18:30.162Z,1.58
2022-08-04T18:21:02.658Z,1.00
2022-08-04T18:23:33.116Z,1.23
2022-08-04T18:26:01.713Z,1.25
2022-08-04T18:31:17.427Z,1.20
2022-08-04T18:33:57.184Z,1.40
2022-08-04T18:36:33.708Z,1.43
2022-08-04T18:39:13.619Z,1.60
2022-08-04T18:42:01.648Z,1.23
2022-08-04T18:44:31.919Z,1.73
2022-08-04T18:47:19.467Z,1.23
2022-08-04T18:51:01.666Z,1.50
2022-08-04T18:52:34.376Z,1.40
2022-08-04T18:55:04.539Z,1.40
2022-08-04T18:57:59.706Z,1.70
2022-08-04T19:00:20.128Z,1.60
2022-08-04T19:02:47.685Z,1.02
2022-08-04T19:08:01.815Z,1.48
2022-08-04T19:10:35.086Z,1.40
2022-08-04T19:13:02.240Z,1.15
2022-08-04T19:15:34.071Z,1.33
2022-08-04T19:18:02.123Z,1.80
2022-08-04T19:20:29.903Z,1.40
2022-08-04T19:24:30.583Z,1.65
2022-08-04T19:25:59.150Z,1.40
2022-08-04T19:28:33.962Z,1.20
2022-08-04T19:31:02.733Z,1.40
2022-08-04T19:33:58.246Z,1.20
2022-08-04T19:36:17.589Z,1.50
2022-08-04T19:38:45.420Z,1.42
2022-08-04T19:41:14.590Z,1.73
2022-08-04T19:43:43.891Z,1.60
2022-08-04T19:46:12.081Z,1.60
2022-08-04T19:48:40.012Z,1.70
2022-08-04T19:51:08.361Z,1.65
2022-08-04T19:53:38.191Z,1.52
2022-08-04T19:56:10.455Z,1.80
2022-08-04T19:58:39.908Z,2.72
2022-08-04T20:01:22.836Z,3.53
2022-08-04T20:04:08.479Z,4.60
2022-08-04T20:06:38.199Z,2.85
2022-08-04T20:09:16.941Z,2.78
2022-08-04T20:11:54.018Z,1.98
2022-08-04T20:17:10.823Z,2.20
2022-08-04T20:19:40.998Z,2.00
2022-08-04T20:22:50.587Z,3.42
2022-08-04T20:25:10.859Z,2.42
2022-08-04T20:27:51.671Z,2.70
2022-08-04T20:30:29.211Z,2.67
2022-08-04T20:32:56.810Z,2.33
2022-08-04T20:35:26.764Z,2.08
2022-08-04T20:40:42.409Z,2.17
2022-08-04T20:43:10.232Z,1.83
2022-08-04T20:48:28.035Z,2.35
2022-08-04T20:50:55.392Z,2.20
2022-08-04T20:53:46.922Z,2.65
2022-08-04T20:56:11.920Z,2.15
2022-08-04T20:58:53.261Z,2.92
2022-08-04T21:01:21.784Z,1.90
2022-08-04T21:04:27.101Z,2.15
2022-08-04T21:06:55.684Z,2.13
2022-08-04T21:09:26.534Z,2.50
2022-08-04T21:12:09.526Z,2.90
2022-08-04T21:17:07.113Z,2.42
2022-08-04T21:19:36.627Z,2.80
2022-08-04T21:24:37.929Z,3.50
2022-08-04T21:29:44.972Z,3.50
2022-08-04T21:32:15.639Z,3.00
2022-08-04T21:34:42.882Z,3.95
2022-08-04T21:37:11.346Z,4.10
2022-08-04T21:42:42.297Z,3.90
2022-08-04T21:52:48.385Z,4.50
2022-08-04T21:57:43.903Z,4.00
2022-08-04T22:16:04.324Z,4.40
2022-08-04T22:18:24.450Z,4.18
2022-08-04T22:25:55.678Z,4.70
2022-08-04T22:30:56.240Z,4.78
2022-08-04T22:36:13.451Z,4.43
2022-08-04T22:41:21.524Z,4.60
2022-08-04T22:44:01.383Z,4.73
2022-08-04T22:46:32.822Z,5.10
2022-08-04T22:51:29.552Z,4.30
2022-08-04T22:53:57.214Z,5.30
2022-08-04T22:59:06.980Z,4.60
2022-08-04T23:04:27.066Z,4.70
2022-08-04T23:06:54.771Z,4.00
2022-08-04T23:09:26.828Z,4.45
2022-08-04T23:14:44.681Z,4.90
2022-08-04T23:17:13.737Z,4.50
2022-08-04T23:25:15.908Z,3.97
2022-08-04T23:27:50.362Z,4.50
2022-08-04T23:30:21.751Z,4.32
2022-08-04T23:33:52.381Z,3.42
2022-08-04T23:38:59.568Z,3.70
2022-08-04T23:41:54.790Z,3.63
2022-08-04T23:46:56.448Z,3.58
2022-08-04T23:49:25.197Z,3.85
2022-08-04T23:52:23.339Z,3.30
